sensor_id;sensor_type;location;lat;lon;timestamp;pressure;altitude;pressure_sealevel;temperature;humidity
26823;BME280;14852;51.910;8.878;2023-04-24T00:00:11;98292.53;;;14.80;50.86
26823;BME280;14852;51.910;8.878;2023-04-24T00:02:42;98289.94;;;14.80;51.13
26823;BME280;14852;51.910;8.878;2023-04-24T00:05:12;98289.09;;;14.79;50.75
26823;BME280;14852;51.910;8.878;2023-04-24T00:07:40;98281.56;;;14.76;50.66
26823;BME280;14852;51.910;8.878;2023-04-24T00:10:07;98281.00;;;14.73;50.59
26823;BME280;14852;51.910;8.878;2023-04-24T00:12:33;98276.06;;;14.70;50.65
26823;BME280;14852;51.910;8.878;2023-04-24T00:14:59;98289.28;;;14.68;50.65
26823;BME280;14852;51.910;8.878;2023-04-24T00:17:24;98279.09;;;14.65;50.49
26823;BME280;14852;51.910;8.878;2023-04-24T00:19:50;98279.41;;;14.62;50.38
26823;BME280;14852;51.910;8.878;2023-04-24T00:22:17;98282.97;;;14.61;50.28
26823;BME280;14852;51.910;8.878;2023-04-24T00:24:43;98269.34;;;14.58;50.84
26823;BME280;14852;51.910;8.878;2023-04-24T00:27:09;98282.69;;;14.55;50.86
26823;BME280;14852;51.910;8.878;2023-04-24T00:29:34;98273.38;;;14.52;50.43
26823;BME280;14852;51.910;8.878;2023-04-24T00:32:00;98276.53;;;14.46;50.48
26823;BME280;14852;51.910;8.878;2023-04-24T00:34:26;98276.81;;;14.43;50.76
26823;BME280;14852;51.910;8.878;2023-04-24T00:36:52;98271.06;;;14.39;50.86
26823;BME280;14852;51.910;8.878;2023-04-24T00:39:21;98262.63;;;14.36;50.74
26823;BME280;14852;51.910;8.878;2023-04-24T00:41:48;98270.88;;;14.31;50.94
26823;BME280;14852;51.910;8.878;2023-04-24T00:44:14;98265.66;;;14.31;50.65
26823;BME280;14852;51.910;8.878;2023-04-24T00:46:41;98272.13;;;14.27;50.73
26823;BME280;14852;51.910;8.878;2023-04-24T00:49:07;98261.00;;;14.25;50.50
26823;BME280;14852;51.910;8.878;2023-04-24T00:51:33;98263.75;;;14.24;50.91
26823;BME280;14852;51.910;8.878;2023-04-24T00:54:00;98259.63;;;14.21;50.44
26823;BME280;14852;51.910;8.878;2023-04-24T00:56:27;98259.75;;;14.20;50.68
26823;BME280;14852;51.910;8.878;2023-04-24T00:58:53;98254.69;;;14.18;50.89
26823;BME280;14852;51.910;8.878;2023-04-24T01:01:21;98256.63;;;14.16;50.99
26823;BME280;14852;51.910;8.878;2023-04-24T01:03:53;98254.16;;;14.14;50.84
26823;BME280;14852;51.910;8.878;2023-04-24T01:06:19;98253.59;;;14.11;50.78
26823;BME280;14852;51.910;8.878;2023-04-24T01:08:46;98258.94;;;14.09;50.72
26823;BME280;14852;51.910;8.878;2023-04-24T01:11:13;98261.84;;;14.06;50.61
26823;BME280;14852;51.910;8.878;2023-04-24T01:13:40;98255.13;;;14.04;51.07
26823;BME280;14852;51.910;8.878;2023-04-24T01:16:06;98256.22;;;14.01;50.95
26823;BME280;14852;51.910;8.878;2023-04-24T01:18:33;98253.72;;;14.00;51.14
26823;BME280;14852;51.910;8.878;2023-04-24T01:20:59;98254.00;;;13.97;51.09
26823;BME280;14852;51.910;8.878;2023-04-24T01:23:30;98259.38;;;13.95;50.88
26823;BME280;14852;51.910;8.878;2023-04-24T01:25:56;98256.22;;;13.92;50.66
26823;BME280;14852;51.910;8.878;2023-04-24T01:28:22;98255.66;;;13.88;50.89
26823;BME280;14852;51.910;8.878;2023-04-24T01:30:48;98248.91;;;13.86;50.82
26823;BME280;14852;51.910;8.878;2023-04-24T01:33:14;98247.25;;;13.85;50.84
26823;BME280;14852;51.910;8.878;2023-04-24T01:35:40;98253.31;;;13.85;51.23
26823;BME280;14852;51.910;8.878;2023-04-24T01:38:06;98251.41;;;13.87;51.12
26823;BME280;14852;51.910;8.878;2023-04-24T01:40:32;98238.47;;;13.86;50.86
26823;BME280;14852;51.910;8.878;2023-04-24T01:42:58;98253.31;;;13.85;50.99
26823;BME280;14852;51.910;8.878;2023-04-24T01:45:24;98248.38;;;13.82;50.80
26823;BME280;14852;51.910;8.878;2023-04-24T01:47:50;98251.81;;;13.83;50.83
26823;BME280;14852;51.910;8.878;2023-04-24T01:50:17;98254.69;;;13.80;51.02
26823;BME280;14852;51.910;8.878;2023-04-24T01:52:43;98253.06;;;13.78;51.17
26823;BME280;14852;51.910;8.878;2023-04-24T01:55:09;98253.06;;;13.78;51.10
26823;BME280;14852;51.910;8.878;2023-04-24T01:57:35;98251.53;;;13.76;50.71
26823;BME280;14852;51.910;8.878;2023-04-24T02:00:03;98250.84;;;13.74;50.94
26823;BME280;14852;51.910;8.878;2023-04-24T02:02:40;98258.53;;;13.75;51.01
26823;BME280;14852;51.910;8.878;2023-04-24T02:05:07;98258.53;;;13.75;50.90
26823;BME280;14852;51.910;8.878;2023-04-24T02:07:35;98250.44;;;13.78;50.97
26823;BME280;14852;51.910;8.878;2023-04-24T02:10:02;98253.63;;;13.82;50.88
26823;BME280;14852;51.910;8.878;2023-04-24T02:12:29;98252.34;;;13.86;51.09
26823;BME280;14852;51.910;8.878;2023-04-24T02:14:55;98249.34;;;13.91;50.69
26823;BME280;14852;51.910;8.878;2023-04-24T02:17:21;98241.25;;;13.94;50.32
26823;BME280;14852;51.910;8.878;2023-04-24T02:19:47;98238.34;;;13.97;50.49
26823;BME280;14852;51.910;8.878;2023-04-24T02:22:12;98241.50;;;14.00;50.48
26823;BME280;14852;51.910;8.878;2023-04-24T02:24:39;98242.88;;;14.04;50.66
26823;BME280;14852;51.910;8.878;2023-04-24T02:27:06;98243.13;;;14.11;50.66
26823;BME280;14852;51.910;8.878;2023-04-24T02:29:32;98233.53;;;14.11;50.36
26823;BME280;14852;51.910;8.878;2023-04-24T02:31:58;98230.78;;;14.13;50.39
26823;BME280;14852;51.910;8.878;2023-04-24T02:34:23;98232.81;;;14.09;50.68
26823;BME280;14852;51.910;8.878;2023-04-24T02:36:49;98234.09;;;14.05;50.76
26823;BME280;14852;51.910;8.878;2023-04-24T02:39:15;98234.09;;;14.05;50.59
26823;BME280;14852;51.910;8.878;2023-04-24T02:41:44;98245.22;;;14.07;50.64
26823;BME280;14852;51.910;8.878;2023-04-24T02:44:10;98245.75;;;14.11;50.64
26823;BME280;14852;51.910;8.878;2023-04-24T02:46:36;98243.69;;;14.14;50.58
26823;BME280;14852;51.910;8.878;2023-04-24T02:49:01;98242.03;;;14.13;50.62
26823;BME280;14852;51.910;8.878;2023-04-24T02:51:28;98222.50;;;14.08;50.41
26823;BME280;14852;51.910;8.878;2023-04-24T02:53:55;98230.78;;;14.03;50.76
26823;BME280;14852;51.910;8.878;2023-04-24T02:56:21;98229.84;;;13.95;50.51
26823;BME280;14852;51.910;8.878;2023-04-24T02:58:47;98233.53;;;13.92;50.72
26823;BME280;14852;51.910;8.878;2023-04-24T03:01:12;98234.38;;;13.93;50.55
26823;BME280;14852;51.910;8.878;2023-04-24T03:03:39;98234.38;;;13.93;50.83
26823;BME280;14852;51.910;8.878;2023-04-24T03:06:05;98230.66;;;13.95;50.67
26823;BME280;14852;51.910;8.878;2023-04-24T03:08:32;98228.44;;;14.00;50.38
26823;BME280;14852;51.910;8.878;2023-04-24T03:10:58;98224.47;;;14.06;50.33
26823;BME280;14852;51.910;8.878;2023-04-24T03:13:23;98230.06;;;14.11;50.21
26823;BME280;14852;51.910;8.878;2023-04-24T03:15:50;98237.66;;;14.14;50.14
26823;BME280;14852;51.910;8.878;2023-04-24T03:18:16;98221.97;;;14.14;50.34
26823;BME280;14852;51.910;8.878;2023-04-24T03:20:42;98228.16;;;14.13;50.70
26823;BME280;14852;51.910;8.878;2023-04-24T03:23:08;98232.16;;;14.07;50.76
26823;BME280;14852;51.910;8.878;2023-04-24T03:25:35;98240.41;;;14.03;50.83
26823;BME280;14852;51.910;8.878;2023-04-24T03:28:01;98230.50;;;13.97;50.75
26823;BME280;14852;51.910;8.878;2023-04-24T03:30:40;98229.84;;;13.95;50.73
26823;BME280;14852;51.910;8.878;2023-04-24T03:33:07;98230.09;;;13.92;50.63
26823;BME280;14852;51.910;8.878;2023-04-24T03:35:37;98235.31;;;13.92;51.11
26823;BME280;14852;51.910;8.878;2023-04-24T03:38:07;98231.75;;;13.93;50.77
26823;BME280;14852;51.910;8.878;2023-04-24T03:40:52;98230.66;;;13.95;50.61
26823;BME280;14852;51.910;8.878;2023-04-24T03:43:40;98231.88;;;14.01;50.73
26823;BME280;14852;51.910;8.878;2023-04-24T03:46:06;98233.41;;;14.03;50.83
26823;BME280;14852;51.910;8.878;2023-04-24T03:48:38;98228.03;;;14.05;50.66
26823;BME280;14852;51.910;8.878;2023-04-24T03:51:05;98229.81;;;14.04;50.70
26823;BME280;14852;51.910;8.878;2023-04-24T03:53:32;98230.66;;;14.05;50.70
26823;BME280;14852;51.910;8.878;2023-04-24T03:55:59;98225.28;;;14.06;50.74
26823;BME280;14852;51.910;8.878;2023-04-24T03:58:24;98226.94;;;14.07;50.80
26823;BME280;14852;51.910;8.878;2023-04-24T04:00:52;98223.19;;;14.10;50.80
26823;BME280;14852;51.910;8.878;2023-04-24T04:03:41;98223.63;;;14.15;50.63
26823;BME280;14852;51.910;8.878;2023-04-24T04:06:07;98224.19;;;14.19;50.62
26823;BME280;14852;51.910;8.878;2023-04-24T04:08:33;98216.19;;;14.20;50.55
26823;BME280;14852;51.910;8.878;2023-04-24T04:10:59;98227.75;;;14.18;50.64
26823;BME280;14852;51.910;8.878;2023-04-24T04:13:25;98233.63;;;14.20;50.50
26823;BME280;14852;51.910;8.878;2023-04-24T04:15:50;98230.38;;;14.18;50.99
26823;BME280;14852;51.910;8.878;2023-04-24T04:18:16;98235.84;;;14.14;51.16
26823;BME280;14852;51.910;8.878;2023-04-24T04:20:42;98233.25;;;14.14;51.12
26823;BME280;14852;51.910;8.878;2023-04-24T04:23:10;98235.72;;;14.16;51.30
26823;BME280;14852;51.910;8.878;2023-04-24T04:25:48;98232.97;;;14.18;51.08
26823;BME280;14852;51.910;8.878;2023-04-24T04:28:20;98236.25;;;14.20;50.80
26823;BME280;14852;51.910;8.878;2023-04-24T04:30:48;98236.09;;;14.21;51.36
26823;BME280;14852;51.910;8.878;2023-04-24T04:33:14;98245.06;;;14.19;51.37
26823;BME280;14852;51.910;8.878;2023-04-24T04:35:41;98247.69;;;14.19;51.41
26823;BME280;14852;51.910;8.878;2023-04-24T04:38:07;98253.31;;;14.14;51.59
26823;BME280;14852;51.910;8.878;2023-04-24T04:40:52;98253.06;;;14.07;51.88
26823;BME280;14852;51.910;8.878;2023-04-24T04:43:20;98248.50;;;14.00;51.88
26823;BME280;14852;51.910;8.878;2023-04-24T04:45:54;98244.38;;;13.97;51.70
26823;BME280;14852;51.910;8.878;2023-04-24T04:48:30;98244.53;;;13.96;52.17
26823;BME280;14852;51.910;8.878;2023-04-24T04:50:59;98246.72;;;13.91;51.83
26823;BME280;14852;51.910;8.878;2023-04-24T04:53:26;98243.56;;;13.87;51.95
26823;BME280;14852;51.910;8.878;2023-04-24T04:55:52;98242.59;;;13.88;51.75
26823;BME280;14852;51.910;8.878;2023-04-24T04:58:19;98248.09;;;13.85;52.08
26823;BME280;14852;51.910;8.878;2023-04-24T05:00:48;98260.75;;;13.90;52.21
26823;BME280;14852;51.910;8.878;2023-04-24T05:03:31;98256.91;;;13.94;51.78
26823;BME280;14852;51.910;8.878;2023-04-24T05:06:09;98266.53;;;13.93;52.35
26823;BME280;14852;51.910;8.878;2023-04-24T05:08:37;98258.56;;;13.95;52.23
26823;BME280;14852;51.910;8.878;2023-04-24T05:11:06;98261.69;;;13.98;52.12
26823;BME280;14852;51.910;8.878;2023-04-24T05:13:32;98264.88;;;14.02;52.65
26823;BME280;14852;51.910;8.878;2023-04-24T05:15:59;98271.47;;;14.06;52.20
26823;BME280;14852;51.910;8.878;2023-04-24T05:18:26;98275.56;;;14.08;52.74
26823;BME280;14852;51.910;8.878;2023-04-24T05:20:51;98275.44;;;14.10;52.41
26823;BME280;14852;51.910;8.878;2023-04-24T05:23:17;98264.47;;;14.06;52.61
26823;BME280;14852;51.910;8.878;2023-04-24T05:25:46;98277.09;;;14.01;52.82
26823;BME280;14852;51.910;8.878;2023-04-24T05:28:13;98290.72;;;13.95;52.45
26823;BME280;14852;51.910;8.878;2023-04-24T05:30:39;98283.41;;;13.89;52.36
26823;BME280;14852;51.910;8.878;2023-04-24T05:33:06;98284.50;;;13.87;52.52
26823;BME280;14852;51.910;8.878;2023-04-24T05:35:34;98293.47;;;13.84;51.92
26823;BME280;14852;51.910;8.878;2023-04-24T05:38:00;98293.59;;;13.83;51.90
26823;BME280;14852;51.910;8.878;2023-04-24T05:40:26;98296.34;;;13.81;51.87
26823;BME280;14852;51.910;8.878;2023-04-24T05:42:52;98293.72;;;13.81;51.34
26823;BME280;14852;51.910;8.878;2023-04-24T05:45:20;98292.78;;;13.82;51.37
26823;BME280;14852;51.910;8.878;2023-04-24T05:47:45;98289.34;;;13.82;51.33
26823;BME280;14852;51.910;8.878;2023-04-24T05:50:11;98290.44;;;13.79;51.57
26823;BME280;14852;51.910;8.878;2023-04-24T05:52:37;98290.44;;;13.79;51.23
26823;BME280;14852;51.910;8.878;2023-04-24T05:55:10;98294.56;;;13.72;51.38
26823;BME280;14852;51.910;8.878;2023-04-24T05:57:38;98293.84;;;13.70;51.17
26823;BME280;14852;51.910;8.878;2023-04-24T06:00:05;98295.63;;;13.69;51.08
26823;BME280;14852;51.910;8.878;2023-04-24T06:02:39;98307.72;;;13.70;51.24
26823;BME280;14852;51.910;8.878;2023-04-24T06:05:06;98297.16;;;13.72;51.01
26823;BME280;14852;51.910;8.878;2023-04-24T06:07:33;98297.44;;;13.78;50.99
26823;BME280;14852;51.910;8.878;2023-04-24T06:10:02;98298.13;;;14.48;49.82
26823;BME280;14852;51.910;8.878;2023-04-24T06:12:31;98299.09;;;15.31;48.38
26823;BME280;14852;51.910;8.878;2023-04-24T06:15:02;98283.19;;;15.87;47.01
26823;BME280;14852;51.910;8.878;2023-04-24T06:17:50;98293.91;;;15.76;47.15
26823;BME280;14852;51.910;8.878;2023-04-24T06:20:17;98287.66;;;15.59;47.47
26823;BME280;14852;51.910;8.878;2023-04-24T06:22:43;98296.13;;;15.43;47.65
26823;BME280;14852;51.910;8.878;2023-04-24T06:25:10;98304.75;;;15.53;47.81
26823;BME280;14852;51.910;8.878;2023-04-24T06:27:36;98302.44;;;15.50;47.76
26823;BME280;14852;51.910;8.878;2023-04-24T06:30:02;98306.97;;;15.48;48.22
26823;BME280;14852;51.910;8.878;2023-04-24T06:32:28;98302.44;;;15.50;47.84
26823;BME280;14852;51.910;8.878;2023-04-24T06:34:53;98300.31;;;15.81;47.57
26823;BME280;14852;51.910;8.878;2023-04-24T06:37:22;98307.06;;;16.37;46.30
26823;BME280;14852;51.910;8.878;2023-04-24T06:39:48;98299.41;;;17.21;44.32
26823;BME280;14852;51.910;8.878;2023-04-24T06:42:14;98307.69;;;17.09;44.73
26823;BME280;14852;51.910;8.878;2023-04-24T06:44:43;98309.56;;;16.64;45.78
26823;BME280;14852;51.910;8.878;2023-04-24T06:47:10;98306.47;;;16.25;46.47
26823;BME280;14852;51.910;8.878;2023-04-24T06:49:37;98307.75;;;15.86;47.02
26823;BME280;14852;51.910;8.878;2023-04-24T06:52:03;98305.69;;;15.62;47.90
26823;BME280;14852;51.910;8.878;2023-04-24T06:54:30;98314.53;;;15.51;47.90
26823;BME280;14852;51.910;8.878;2023-04-24T06:56:56;98316.19;;;15.52;48.08
26823;BME280;14852;51.910;8.878;2023-04-24T06:59:26;98316.00;;;15.36;47.84
26823;BME280;14852;51.910;8.878;2023-04-24T07:01:53;98329.59;;;15.22;47.79
26823;BME280;14852;51.910;8.878;2023-04-24T07:04:19;98327.44;;;15.08;48.18
26823;BME280;14852;51.910;8.878;2023-04-24T07:06:47;98333.34;;;15.00;48.50
26823;BME280;14852;51.910;8.878;2023-04-24T07:09:14;98324.44;;;14.93;48.24
26823;BME280;14852;51.910;8.878;2023-04-24T07:11:41;98326.94;;;14.85;48.34
26823;BME280;14852;51.910;8.878;2023-04-24T07:14:08;98326.16;;;14.75;48.34
26823;BME280;14852;51.910;8.878;2023-04-24T07:16:34;98331.81;;;14.61;48.24
26823;BME280;14852;51.910;8.878;2023-04-24T07:19:00;98322.91;;;14.54;48.60
26823;BME280;14852;51.910;8.878;2023-04-24T07:21:25;98317.50;;;14.55;48.29
26823;BME280;14852;51.910;8.878;2023-04-24T07:23:52;98322.22;;;14.52;48.51
26823;BME280;14852;51.910;8.878;2023-04-24T07:26:19;98319.72;;;14.60;48.50
26823;BME280;14852;51.910;8.878;2023-04-24T07:28:46;98321.44;;;14.78;47.93
26823;BME280;14852;51.910;8.878;2023-04-24T07:31:12;98321.69;;;14.95;47.65
26823;BME280;14852;51.910;8.878;2023-04-24T07:33:38;98328.38;;;15.07;47.58
26823;BME280;14852;51.910;8.878;2023-04-24T07:36:04;98319.94;;;15.13;47.40
26823;BME280;14852;51.910;8.878;2023-04-24T07:38:30;98318.44;;;15.20;46.92
26823;BME280;14852;51.910;8.878;2023-04-24T07:40:56;98323.41;;;15.41;46.82
26823;BME280;14852;51.910;8.878;2023-04-24T07:43:22;98319.13;;;15.94;46.06
26823;BME280;14852;51.910;8.878;2023-04-24T07:45:50;98321.41;;;16.51;45.08
26823;BME280;14852;51.910;8.878;2023-04-24T07:48:16;98305.25;;;17.07;43.64
26823;BME280;14852;51.910;8.878;2023-04-24T07:50:44;98303.78;;;18.45;41.18
26823;BME280;14852;51.910;8.878;2023-04-24T07:53:10;98295.66;;;20.28;38.41
26823;BME280;14852;51.910;8.878;2023-04-24T07:55:36;98302.28;;;21.13;37.26
26823;BME280;14852;51.910;8.878;2023-04-24T07:58:01;98307.06;;;20.66;37.72
26823;BME280;14852;51.910;8.878;2023-04-24T08:00:27;98311.59;;;19.88;39.21
26823;BME280;14852;51.910;8.878;2023-04-24T08:02:53;98309.81;;;19.03;40.75
26823;BME280;14852;51.910;8.878;2023-04-24T08:05:19;98308.22;;;18.61;41.61
26823;BME280;14852;51.910;8.878;2023-04-24T08:07:46;98320.72;;;18.19;41.83
26823;BME280;14852;51.910;8.878;2023-04-24T08:10:14;98332.00;;;17.95;42.60
26823;BME280;14852;51.910;8.878;2023-04-24T08:12:41;98326.41;;;17.82;43.21
26823;BME280;14852;51.910;8.878;2023-04-24T08:15:07;98327.44;;;19.41;40.77
26823;BME280;14852;51.910;8.878;2023-04-24T08:17:35;98339.09;;;20.63;38.17
26823;BME280;14852;51.910;8.878;2023-04-24T08:20:02;98325.13;;;20.54;37.85
26823;BME280;14852;51.910;8.878;2023-04-24T08:22:29;98330.09;;;19.80;39.11
26823;BME280;14852;51.910;8.878;2023-04-24T08:24:55;98332.84;;;19.01;40.55
26823;BME280;14852;51.910;8.878;2023-04-24T08:29:54;98344.31;;;17.94;41.64
26823;BME280;14852;51.910;8.878;2023-04-24T08:32:20;98360.94;;;17.61;42.19
26823;BME280;14852;51.910;8.878;2023-04-24T08:34:46;98356.38;;;17.29;43.19
26823;BME280;14852;51.910;8.878;2023-04-24T08:37:13;98357.06;;;17.05;43.58
26823;BME280;14852;51.910;8.878;2023-04-24T08:39:39;98372.09;;;16.95;43.40
26823;BME280;14852;51.910;8.878;2023-04-24T08:42:05;98361.47;;;16.79;43.62
26823;BME280;14852;51.910;8.878;2023-04-24T08:44:34;98361.84;;;16.84;43.75
26823;BME280;14852;51.910;8.878;2023-04-24T08:47:02;98362.81;;;17.09;43.19
26823;BME280;14852;51.910;8.878;2023-04-24T08:49:29;98361.34;;;17.40;42.85
26823;BME280;14852;51.910;8.878;2023-04-24T08:51:55;98353.81;;;17.79;42.14
26823;BME280;14852;51.910;8.878;2023-04-24T08:54:21;98340.41;;;18.15;41.46
26823;BME280;14852;51.910;8.878;2023-04-24T08:56:48;98355.06;;;18.33;41.15
26823;BME280;14852;51.910;8.878;2023-04-24T08:59:15;98371.03;;;18.56;40.90
26823;BME280;14852;51.910;8.878;2023-04-24T09:01:41;98355.91;;;18.42;40.91
26823;BME280;14852;51.910;8.878;2023-04-24T09:04:09;98350.44;;;18.19;41.55
26823;BME280;14852;51.910;8.878;2023-04-24T09:06:36;98354.38;;;18.23;42.02
26823;BME280;14852;51.910;8.878;2023-04-24T09:09:02;98357.34;;;18.28;42.58
26823;BME280;14852;51.910;8.878;2023-04-24T09:11:30;98363.09;;;18.24;42.48
26823;BME280;14852;51.910;8.878;2023-04-24T09:13:57;98358.34;;;18.11;42.95
26823;BME280;14852;51.910;8.878;2023-04-24T09:16:25;98356.81;;;18.00;42.97
26823;BME280;14852;51.910;8.878;2023-04-24T09:18:52;98363.09;;;18.07;42.62
26823;BME280;14852;51.910;8.878;2023-04-24T09:21:21;98352.09;;;18.20;42.63
26823;BME280;14852;51.910;8.878;2023-04-24T09:23:58;98353.59;;;18.23;42.23
26823;BME280;14852;51.910;8.878;2023-04-24T09:26:25;98361.44;;;18.06;42.21
26823;BME280;14852;51.910;8.878;2023-04-24T09:28:51;98363.53;;;17.87;42.39
26823;BME280;14852;51.910;8.878;2023-04-24T09:31:19;98372.59;;;17.58;42.34
26823;BME280;14852;51.910;8.878;2023-04-24T09:36:36;98386.66;;;17.15;43.52
26823;BME280;14852;51.910;8.878;2023-04-24T09:39:11;98382.66;;;16.85;43.25
26823;BME280;14852;51.910;8.878;2023-04-24T09:41:52;98381.78;;;16.59;44.32
26823;BME280;14852;51.910;8.878;2023-04-24T09:44:20;98379.41;;;16.48;43.94
26823;BME280;14852;51.910;8.878;2023-04-24T09:46:52;98366.16;;;16.49;44.39
26823;BME280;14852;51.910;8.878;2023-04-24T09:49:29;98369.94;;;16.55;44.17
26823;BME280;14852;51.910;8.878;2023-04-24T09:52:08;98369.66;;;16.76;43.24
26823;BME280;14852;51.910;8.878;2023-04-24T09:54:34;98374.19;;;16.91;42.85
26823;BME280;14852;51.910;8.878;2023-04-24T09:57:02;98380.06;;;17.11;42.65
26823;BME280;14852;51.910;8.878;2023-04-24T09:59:29;98367.09;;;17.10;42.29
26823;BME280;14852;51.910;8.878;2023-04-24T10:01:55;98379.03;;;17.04;42.89
26823;BME280;14852;51.910;8.878;2023-04-24T10:04:23;98396.63;;;17.12;42.11
26823;BME280;14852;51.910;8.878;2023-04-24T10:06:53;98391.34;;;17.04;42.30
26823;BME280;14852;51.910;8.878;2023-04-24T10:09:25;98394.09;;;17.02;42.42
26823;BME280;14852;51.910;8.878;2023-04-24T10:11:53;98389.81;;;17.19;42.33
26823;BME280;14852;51.910;8.878;2023-04-24T10:14:22;98402.56;;;17.48;41.83
26823;BME280;14852;51.910;8.878;2023-04-24T10:16:50;98395.91;;;17.61;41.80
26823;BME280;14852;51.910;8.878;2023-04-24T10:19:18;98406.00;;;17.40;41.17
26823;BME280;14852;51.910;8.878;2023-04-24T10:21:44;98402.56;;;17.14;41.17
26823;BME280;14852;51.910;8.878;2023-04-24T10:24:17;98400.47;;;16.99;41.99
26823;BME280;14852;51.910;8.878;2023-04-24T10:26:45;98395.19;;;16.91;41.85
26823;BME280;14852;51.910;8.878;2023-04-24T10:29:13;98408.31;;;16.74;42.09
26823;BME280;14852;51.910;8.878;2023-04-24T10:31:39;98392.59;;;16.56;42.29
26823;BME280;14852;51.910;8.878;2023-04-24T10:34:07;98388.84;;;16.58;42.69
26823;BME280;14852;51.910;8.878;2023-04-24T10:36:34;98395.16;;;16.65;42.39
26823;BME280;14852;51.910;8.878;2023-04-24T10:39:03;98400.16;;;16.77;42.37
26823;BME280;14852;51.910;8.878;2023-04-24T10:41:31;98394.56;;;16.72;41.88
26823;BME280;14852;51.910;8.878;2023-04-24T10:44:08;98389.66;;;16.59;42.42
26823;BME280;14852;51.910;8.878;2023-04-24T10:46:35;98393.63;;;16.63;42.47
26823;BME280;14852;51.910;8.878;2023-04-24T10:49:06;98409.22;;;16.82;42.26
26823;BME280;14852;51.910;8.878;2023-04-24T10:51:49;98410.50;;;16.78;41.83
26823;BME280;14852;51.910;8.878;2023-04-24T10:54:41;98418.22;;;16.62;42.04
26823;BME280;14852;51.910;8.878;2023-04-24T10:59:47;98449.72;;;15.89;43.29
26823;BME280;14852;51.910;8.878;2023-04-24T11:02:18;98451.91;;;15.67;44.00
26823;BME280;14852;51.910;8.878;2023-04-24T11:04:44;98462.25;;;15.49;44.58
26823;BME280;14852;51.910;8.878;2023-04-24T11:07:13;98461.31;;;15.40;44.69
26823;BME280;14852;51.910;8.878;2023-04-24T11:09:39;98465.19;;;15.46;44.74
26823;BME280;14852;51.910;8.878;2023-04-24T11:12:11;98460.44;;;15.69;45.04
26823;BME280;14852;51.910;8.878;2023-04-24T11:17:35;98479.44;;;15.71;44.48
26823;BME280;14852;51.910;8.878;2023-04-24T11:20:09;98482.66;;;15.45;44.53
26823;BME280;14852;51.910;8.878;2023-04-24T11:22:37;98493.56;;;15.31;45.11
26823;BME280;14852;51.910;8.878;2023-04-24T11:25:04;98487.81;;;15.08;45.53
26823;BME280;14852;51.910;8.878;2023-04-24T11:27:42;98489.06;;;14.95;45.35
26823;BME280;14852;51.910;8.878;2023-04-24T11:30:10;98495.53;;;14.81;46.08
26823;BME280;14852;51.910;8.878;2023-04-24T11:32:43;98493.31;;;14.67;46.19
26823;BME280;14852;51.910;8.878;2023-04-24T11:35:23;98493.06;;;14.60;46.33
26823;BME280;14852;51.910;8.878;2023-04-24T11:37:54;98507.22;;;14.58;46.64
26823;BME280;14852;51.910;8.878;2023-04-24T11:40:21;98502.69;;;14.50;46.67
26823;BME280;14852;51.910;8.878;2023-04-24T11:42:52;98500.19;;;14.48;46.97
26823;BME280;14852;51.910;8.878;2023-04-24T11:45:30;98509.00;;;14.57;46.82
26823;BME280;14852;51.910;8.878;2023-04-24T11:47:57;98507.78;;;14.52;47.35
26823;BME280;14852;51.910;8.878;2023-04-24T11:50:25;98511.47;;;14.49;47.12
26823;BME280;14852;51.910;8.878;2023-04-24T11:52:52;98521.53;;;14.54;47.45
26823;BME280;14852;51.910;8.878;2023-04-24T11:57:53;98522.19;;;14.46;48.04
26823;BME280;14852;51.910;8.878;2023-04-24T12:00:30;98539.00;;;14.53;47.74
26823;BME280;14852;51.910;8.878;2023-04-24T12:03:11;98543.13;;;14.56;48.34
26823;BME280;14852;51.910;8.878;2023-04-24T12:05:38;98544.50;;;14.50;48.32
26823;BME280;14852;51.910;8.878;2023-04-24T12:08:05;98560.59;;;14.55;48.47
26823;BME280;14852;51.910;8.878;2023-04-24T12:10:32;98548.63;;;14.53;49.42
26823;BME280;14852;51.910;8.878;2023-04-24T12:12:59;98556.72;;;14.49;49.27
26823;BME280;14852;51.910;8.878;2023-04-24T12:15:26;98561.81;;;14.41;49.75
26823;BME280;14852;51.910;8.878;2023-04-24T12:17:53;98568.00;;;14.40;49.36
26823;BME280;14852;51.910;8.878;2023-04-24T12:20:29;98566.56;;;14.36;49.85
26823;BME280;14852;51.910;8.878;2023-04-24T12:22:57;98575.63;;;14.32;49.74
26823;BME280;14852;51.910;8.878;2023-04-24T12:25:26;98581.06;;;14.40;49.81
26823;BME280;14852;51.910;8.878;2023-04-24T12:27:55;98576.25;;;14.45;50.36
26823;BME280;14852;51.910;8.878;2023-04-24T12:30:44;98590.00;;;14.47;50.23
26823;BME280;14852;51.910;8.878;2023-04-24T12:33:20;98583.28;;;14.55;49.87
26823;BME280;14852;51.910;8.878;2023-04-24T12:35:51;98592.63;;;14.47;49.75
26823;BME280;14852;51.910;8.878;2023-04-24T12:38:22;98606.03;;;14.33;50.48
26823;BME280;14852;51.910;8.878;2023-04-24T12:41:09;98613.69;;;14.25;50.81
26823;BME280;14852;51.910;8.878;2023-04-24T12:43:36;98639.66;;;14.17;50.98
26823;BME280;14852;51.910;8.878;2023-04-24T12:46:03;98632.97;;;14.03;50.73
26823;BME280;14852;51.910;8.878;2023-04-24T12:48:30;98631.97;;;13.95;50.57
26823;BME280;14852;51.910;8.878;2023-04-24T13:15:33;98669.56;;;13.83;51.22
26823;BME280;14852;51.910;8.878;2023-04-24T13:17:59;98669.28;;;13.86;51.33
26823;BME280;14852;51.910;8.878;2023-04-24T13:20:25;98677.69;;;13.89;51.20
26823;BME280;14852;51.910;8.878;2023-04-24T13:23:02;98679.16;;;13.82;51.69
26823;BME280;14852;51.910;8.878;2023-04-24T13:25:35;98682.72;;;13.81;51.79
26823;BME280;14852;51.910;8.878;2023-04-24T13:28:02;98677.50;;;13.81;51.95
26823;BME280;14852;51.910;8.878;2023-04-24T13:30:28;98684.38;;;13.82;51.93
26823;BME280;14852;51.910;8.878;2023-04-24T13:32:57;98677.28;;;13.84;52.33
26823;BME280;14852;51.910;8.878;2023-04-24T13:35:30;98688.97;;;13.90;51.77
26823;BME280;14852;51.910;8.878;2023-04-24T13:37:57;98693.19;;;13.81;52.34
26823;BME280;14852;51.910;8.878;2023-04-24T13:40:23;98697.44;;;13.61;52.42
26823;BME280;14852;51.910;8.878;2023-04-24T13:42:49;98697.09;;;13.55;52.88